Time;durP1;ratioP1;P1;durP2;ratioP2;P2;SDS_P1;SDS_P2;PMS_P1;PMS_P2;Temp;Humidity;BMP_temperature;BMP_pressure;BME280_temperature;BME280_humidity;BME280_pressure;Samples;Min_cycle;Max_cycle;Signal;HPM_P1;HPM_P2
2023/09/24 00:00:20;;;;;;;6.33;3.90;;;;;12.80;101747.00;;;;4924512;29;20244;-68
2023/09/24 00:03:07;;;;;;;7.40;4.13;;;;;12.80;101750.00;;;;4925385;29;20785;-69
2023/09/24 00:05:53;;;;;;;6.13;4.07;;;;;12.80;101744.00;;;;4916652;29;20270;-70
2023/09/24 00:08:39;;;;;;;7.30;3.63;;;;;12.70;101751.00;;;;4929946;29;20276;-70
2023/09/24 00:11:26;;;;;;;4.93;3.80;;;;;12.70;101751.00;;;;4912333;29;20233;-69
2023/09/24 00:14:13;;;;;;;7.53;3.93;;;;;12.70;101752.00;;;;4922401;29;20374;-70
2023/09/24 00:17:00;;;;;;;7.27;4.13;;;;;12.70;101759.00;;;;4910663;29;20269;-71
2023/09/24 00:19:47;;;;;;;8.20;3.97;;;;;12.70;101762.00;;;;4913101;29;20252;-69
2023/09/24 00:22:34;;;;;;;5.30;3.70;;;;;12.60;101773.00;;;;4924356;29;20236;-72
2023/09/24 00:25:21;;;;;;;5.87;3.73;;;;;12.60;101776.00;;;;4916235;29;20237;-71
2023/09/24 00:28:07;;;;;;;7.17;4.17;;;;;12.60;101787.00;;;;4924039;29;20828;-70
2023/09/24 00:30:54;;;;;;;5.30;3.90;;;;;12.50;101779.00;;;;4918275;29;20444;-68
2023/09/24 00:33:42;;;;;;;8.90;3.57;;;;;12.50;101784.00;;;;4926974;29;20610;-68
2023/09/24 00:36:28;;;;;;;6.70;3.93;;;;;12.40;101775.00;;;;4923768;28;20312;-68
2023/09/24 00:39:16;;;;;;;7.03;3.87;;;;;12.50;101778.00;;;;4914417;29;20796;-70
2023/09/24 00:42:05;;;;;;;4.80;4.07;;;;;12.40;101778.00;;;;4918419;29;20272;-70
2023/09/24 00:44:52;;;;;;;5.17;3.93;;;;;12.40;101778.00;;;;4918236;29;20234;-66
2023/09/24 00:47:44;;;;;;;5.77;4.37;;;;;12.40;101780.00;;;;4917742;29;20237;-71
2023/09/24 00:50:33;;;;;;;8.67;4.40;;;;;12.30;101780.00;;;;4918205;29;20823;-71
2023/09/24 00:53:21;;;;;;;5.90;4.20;;;;;12.40;101783.00;;;;4924991;28;20237;-69
2023/09/24 00:56:08;;;;;;;10.17;3.63;;;;;12.30;101778.00;;;;4923177;28;20366;-68
2023/09/24 00:58:55;;;;;;;5.80;4.40;;;;;12.30;101784.00;;;;4915957;29;20241;-69
2023/09/24 01:01:41;;;;;;;9.87;4.40;;;;;12.30;101781.00;;;;4911436;29;20250;-69
2023/09/24 01:04:29;;;;;;;6.27;4.03;;;;;12.20;101784.00;;;;4915768;29;20752;-68
2023/09/24 01:07:17;;;;;;;8.27;4.40;;;;;12.20;101782.00;;;;4921582;28;20228;-70
2023/09/24 01:10:04;;;;;;;6.93;4.40;;;;;12.20;101786.00;;;;4918678;29;20229;-69
2023/09/24 01:12:58;;;;;;;6.70;4.00;;;;;12.20;101789.00;;;;4920314;28;20305;-70
2023/09/24 01:15:45;;;;;;;9.10;4.93;;;;;12.20;101785.00;;;;4915359;28;20236;-70
2023/09/24 01:18:31;;;;;;;9.97;4.47;;;;;12.10;101783.00;;;;4924424;29;20232;-70
2023/09/24 01:21:18;;;;;;;8.03;4.67;;;;;12.10;101790.00;;;;4925759;28;20494;-69
2023/09/24 01:24:08;;;;;;;10.73;5.13;;;;;12.10;101780.00;;;;4918099;29;20240;-68
2023/09/24 01:26:55;;;;;;;5.73;4.50;;;;;12.10;101789.00;;;;4918555;29;20313;-70
2023/09/24 01:29:42;;;;;;;8.37;5.13;;;;;12.10;101792.00;;;;4917243;29;20232;-70
2023/09/24 01:32:28;;;;;;;9.00;4.97;;;;;12.00;101796.00;;;;4922550;29;20228;-67
2023/09/24 01:35:15;;;;;;;11.90;5.43;;;;;12.00;101794.00;;;;4922416;28;20620;-68
2023/09/24 01:38:04;;;;;;;9.13;4.97;;;;;12.00;101803.00;;;;4926616;29;20738;-71
2023/09/24 01:40:53;;;;;;;7.50;5.00;;;;;11.90;101804.00;;;;4914836;29;20228;-69
2023/09/24 01:43:42;;;;;;;8.37;5.30;;;;;11.90;101805.00;;;;4924741;29;20308;-69
2023/09/24 01:46:29;;;;;;;7.90;5.03;;;;;11.90;101803.00;;;;4915883;29;20250;-66
2023/09/24 01:49:17;;;;;;;10.17;5.17;;;;;11.80;101797.00;;;;4919771;28;20247;-69
2023/09/24 01:52:05;;;;;;;7.80;5.20;;;;;11.80;101799.00;;;;4918692;29;20265;-70
2023/09/24 01:54:51;;;;;;;7.50;5.10;;;;;11.80;101801.00;;;;4918854;29;20593;-70
2023/09/24 01:57:40;;;;;;;8.70;5.20;;;;;11.70;101804.00;;;;4914133;29;20237;-72
2023/09/24 02:00:27;;;;;;;9.23;5.80;;;;;11.70;101801.00;;;;4923697;29;20229;-70
2023/09/24 02:03:13;;;;;;;7.80;5.00;;;;;11.70;101802.00;;;;4917966;29;20357;-70
2023/09/24 02:05:59;;;;;;;7.63;5.73;;;;;11.60;101807.00;;;;4911977;29;20301;-70
2023/09/24 02:08:46;;;;;;;7.53;5.07;;;;;11.60;101811.00;;;;4911269;29;20633;-69
2023/09/24 02:11:32;;;;;;;7.70;5.23;;;;;11.60;101798.00;;;;4919715;29;20361;-70
2023/09/24 02:14:20;;;;;;;7.17;5.07;;;;;11.50;101806.00;;;;4913059;29;20301;-68
2023/09/24 02:17:07;;;;;;;9.33;5.50;;;;;11.50;101805.00;;;;4908682;29;20252;-70
2023/09/24 02:19:55;;;;;;;7.73;5.50;;;;;11.50;101804.00;;;;4910392;29;20301;-68
2023/09/24 02:22:43;;;;;;;9.00;5.57;;;;;11.50;101808.00;;;;4923220;29;20272;-70
2023/09/24 02:25:31;;;;;;;9.53;5.23;;;;;11.50;101812.00;;;;4919898;28;20227;-67
2023/09/24 02:28:18;;;;;;;8.67;5.47;;;;;11.40;101809.00;;;;4921631;29;20229;-71
2023/09/24 02:31:07;;;;;;;11.60;5.60;;;;;11.40;101809.00;;;;4920132;29;20232;-70
2023/09/24 02:33:54;;;;;;;9.77;5.67;;;;;11.40;101821.00;;;;4922302;29;20289;-69
2023/09/24 02:36:40;;;;;;;8.57;5.57;;;;;11.30;101819.00;;;;4902184;29;20245;-71
2023/09/24 02:39:26;;;;;;;9.83;6.03;;;;;11.30;101822.00;;;;4917336;29;20241;-71
2023/09/24 02:42:13;;;;;;;8.70;6.10;;;;;11.30;101823.00;;;;4915404;29;20225;-69
2023/09/24 02:44:59;;;;;;;8.30;5.97;;;;;11.20;101821.00;;;;4917075;29;20236;-69
2023/09/24 02:47:49;;;;;;;7.03;5.43;;;;;11.30;101815.00;;;;4922320;29;20400;-70
2023/09/24 02:50:35;;;;;;;11.97;6.10;;;;;11.30;101814.00;;;;4921032;28;20316;-70
2023/09/24 02:53:22;;;;;;;7.93;5.83;;;;;11.20;101825.00;;;;4918993;29;20766;-70
2023/09/24 02:56:09;;;;;;;9.77;5.97;;;;;11.20;101821.00;;;;4923611;29;20891;-68
2023/09/24 02:58:55;;;;;;;10.43;6.10;;;;;11.20;101823.00;;;;4920833;29;20900;-70
2023/09/24 03:01:46;;;;;;;7.93;5.50;;;;;11.20;101826.00;;;;4926180;29;20651;-69
2023/09/24 03:04:35;;;;;;;8.83;5.43;;;;;11.20;101826.00;;;;4926548;29;20245;-69
2023/09/24 03:07:21;;;;;;;10.37;6.17;;;;;11.20;101835.00;;;;4926123;28;20233;-68
2023/09/24 03:10:10;;;;;;;11.43;5.57;;;;;11.20;101829.00;;;;4928773;29;20227;-67
2023/09/24 03:12:57;;;;;;;7.70;5.60;;;;;11.10;101831.00;;;;4919323;29;20715;-68
2023/09/24 03:15:44;;;;;;;8.53;5.30;;;;;11.10;101835.00;;;;4922533;29;20599;-67
2023/09/24 03:18:30;;;;;;;9.73;6.33;;;;;11.10;101837.00;;;;4930930;29;20626;-68
2023/09/24 03:21:18;;;;;;;11.57;5.90;;;;;11.10;101838.00;;;;4926402;29;20590;-69
2023/09/24 03:24:07;;;;;;;9.43;5.90;;;;;11.10;101843.00;;;;4925646;29;20370;-70
2023/09/24 03:26:54;;;;;;;8.63;5.80;;;;;11.10;101843.00;;;;4915598;29;20398;-67
2023/09/24 03:29:40;;;;;;;13.33;6.33;;;;;11.10;101851.00;;;;4926988;29;20229;-69
2023/09/24 03:32:27;;;;;;;10.23;6.80;;;;;11.00;101853.00;;;;4923345;29;20316;-71
2023/09/24 03:35:13;;;;;;;14.33;6.40;;;;;11.00;101854.00;;;;4926446;29;20611;-70
2023/09/24 03:38:01;;;;;;;10.93;5.73;;;;;11.00;101862.00;;;;4928880;29;20284;-68
2023/09/24 03:40:47;;;;;;;8.67;6.23;;;;;10.90;101870.00;;;;4919247;29;20230;-71
2023/09/24 03:43:33;;;;;;;8.20;5.70;;;;;10.90;101874.00;;;;4920830;29;20232;-68
2023/09/24 03:46:20;;;;;;;8.43;6.00;;;;;10.90;101878.00;;;;4918125;29;20229;-70
2023/09/24 03:49:06;;;;;;;14.43;5.60;;;;;10.90;101864.00;;;;4925134;28;20817;-70
2023/09/24 03:51:53;;;;;;;8.37;5.70;;;;;10.80;101878.00;;;;4918976;29;20260;-69
2023/09/24 03:54:41;;;;;;;12.63;6.33;;;;;10.80;101876.00;;;;4922201;29;20251;-69
2023/09/24 03:57:28;;;;;;;8.93;5.53;;;;;10.80;101876.00;;;;4924071;28;20233;-69
2023/09/24 04:00:18;;;;;;;13.37;5.73;;;;;10.70;101889.00;;;;4914063;29;20701;-73
2023/09/24 04:03:04;;;;;;;9.60;5.60;;;;;10.70;101889.00;;;;4919233;29;20243;-70
2023/09/24 04:05:55;;;;;;;8.83;5.57;;;;;10.70;101895.00;;;;4914503;28;20601;-69
2023/09/24 04:08:41;;;;;;;13.23;6.00;;;;;10.70;101896.00;;;;4920392;29;20232;-70
2023/09/24 04:11:29;;;;;;;11.40;6.17;;;;;10.70;101893.00;;;;4928160;29;20225;-70
2023/09/24 04:14:16;;;;;;;8.17;5.43;;;;;10.60;101896.00;;;;4917822;29;20319;-69
2023/09/24 04:17:03;;;;;;;12.67;5.77;;;;;10.60;101896.00;;;;4917106;29;20239;-70
2023/09/24 04:19:51;;;;;;;9.53;6.00;;;;;10.60;101907.00;;;;4919300;29;20237;-68
2023/09/24 04:22:38;;;;;;;7.87;5.30;;;;;10.50;101905.00;;;;4927039;29;20285;-69
2023/09/24 04:25:26;;;;;;;8.37;5.70;;;;;10.60;101906.00;;;;4920997;28;20244;-71
2023/09/24 04:28:17;;;;;;;10.17;6.07;;;;;10.50;101907.00;;;;4929483;29;20236;-69
2023/09/24 04:31:03;;;;;;;11.83;5.87;;;;;10.50;101908.00;;;;4919762;29;20252;-68
2023/09/24 04:33:49;;;;;;;9.00;5.50;;;;;10.50;101914.00;;;;4917043;29;20287;-68
2023/09/24 04:36:36;;;;;;;8.53;5.43;;;;;10.50;101911.00;;;;4919737;29;20260;-70
2023/09/24 04:39:23;;;;;;;9.63;5.40;;;;;10.60;101910.00;;;;4924016;29;20897;-69
2023/09/24 04:42:11;;;;;;;10.70;5.73;;;;;10.50;101916.00;;;;4917865;29;20608;-67
2023/09/24 04:44:58;;;;;;;9.40;5.70;;;;;10.40;101916.00;;;;4916600;29;20327;-70
2023/09/24 04:47:45;;;;;;;12.73;5.87;;;;;10.30;101914.00;;;;4924723;29;20242;-68
2023/09/24 04:50:32;;;;;;;13.63;5.63;;;;;10.30;101916.00;;;;4926738;28;20269;-68
2023/09/24 04:53:18;;;;;;;10.27;5.67;;;;;10.30;101915.00;;;;4921079;28;20235;-68
2023/09/24 04:56:07;;;;;;;8.30;5.50;;;;;10.20;101923.00;;;;4921731;29;20327;-68
2023/09/24 04:58:53;;;;;;;9.17;5.63;;;;;10.20;101923.00;;;;4920196;28;20256;-69
2023/09/24 05:01:41;;;;;;;12.73;6.40;;;;;10.10;101930.00;;;;4925593;29;20232;-72
2023/09/24 05:04:27;;;;;;;9.70;5.30;;;;;10.10;101929.00;;;;4924436;29;20719;-70
2023/09/24 05:07:14;;;;;;;9.53;5.80;;;;;10.10;101932.00;;;;4921352;29;20236;-70
2023/09/24 05:10:00;;;;;;;9.37;6.03;;;;;10.10;101931.00;;;;4917089;29;20746;-67
2023/09/24 05:12:46;;;;;;;10.03;5.80;;;;;10.10;101936.00;;;;4919083;29;20235;-70
2023/09/24 05:15:33;;;;;;;10.07;5.97;;;;;10.10;101935.00;;;;4917263;29;20737;-67
2023/09/24 05:18:22;;;;;;;10.70;6.27;;;;;10.00;101937.00;;;;4911888;29;20492;-69
2023/09/24 05:21:17;;;;;;;14.37;6.33;;;;;10.00;101941.00;;;;4920500;29;20233;-68
2023/09/24 05:24:03;;;;;;;11.87;6.50;;;;;9.90;101942.00;;;;4917397;28;20349;-68
2023/09/24 05:26:50;;;;;;;10.07;6.20;;;;;9.90;101948.00;;;;4919634;29;20249;-70
2023/09/24 05:29:36;;;;;;;10.27;6.10;;;;;9.90;101941.00;;;;4918054;29;20605;-69
2023/09/24 05:32:23;;;;;;;9.43;6.00;;;;;10.00;101942.00;;;;4917190;29;20300;-68
2023/09/24 05:35:11;;;;;;;9.10;6.07;;;;;10.00;101951.00;;;;4916208;29;20231;-68
2023/09/24 05:37:57;;;;;;;10.27;6.83;;;;;10.00;101958.00;;;;4923882;28;20318;-69
2023/09/24 05:40:43;;;;;;;13.13;6.73;;;;;10.00;101953.00;;;;4919923;29;20228;-68
2023/09/24 05:43:29;;;;;;;12.93;6.27;;;;;10.00;101953.00;;;;4925339;29;20230;-69
2023/09/24 05:46:15;;;;;;;11.30;5.97;;;;;10.00;101958.00;;;;4924574;29;20234;-70
2023/09/24 05:49:04;;;;;;;13.57;6.13;;;;;10.00;101962.00;;;;4923122;29;20301;-70
2023/09/24 05:51:52;;;;;;;10.37;6.00;;;;;10.00;101972.00;;;;4923066;28;20669;-70
2023/09/24 05:54:38;;;;;;;11.13;6.33;;;;;10.10;101973.00;;;;4924225;29;20890;-69
2023/09/24 05:57:26;;;;;;;12.63;6.53;;;;;10.10;101980.00;;;;4918232;28;20737;-70
2023/09/24 06:00:13;;;;;;;11.60;6.00;;;;;10.20;101980.00;;;;4922950;28;20243;-69
2023/09/24 06:03:00;;;;;;;10.40;5.87;;;;;10.20;101986.00;;;;4920591;29;20242;-70
2023/09/24 06:05:46;;;;;;;9.87;6.10;;;;;10.20;101990.00;;;;4913614;28;20236;-70
2023/09/24 06:08:34;;;;;;;10.90;6.37;;;;;10.30;101990.00;;;;4917049;29;20324;-69
2023/09/24 06:11:20;;;;;;;13.83;7.13;;;;;10.30;101988.00;;;;4918158;29;20724;-69
2023/09/24 06:14:08;;;;;;;16.47;6.63;;;;;10.40;101996.00;;;;4916927;28;20237;-69
2023/09/24 06:16:55;;;;;;;8.50;5.60;;;;;10.40;101996.00;;;;4924903;28;20723;-69
2023/09/24 06:19:41;;;;;;;10.30;5.87;;;;;10.50;102006.00;;;;4916702;29;20629;-68
2023/09/24 06:22:28;;;;;;;11.37;6.80;;;;;10.50;102001.00;;;;4923619;29;20235;-70
2023/09/24 06:25:16;;;;;;;11.83;6.03;;;;;10.60;102003.00;;;;4925468;28;20305;-67
2023/09/24 06:28:04;;;;;;;13.70;6.47;;;;;10.60;101996.00;;;;4928367;29;20626;-68
2023/09/24 06:30:59;;;;;;;10.20;5.43;;;;;10.70;102004.00;;;;4926412;29;20757;-71
2023/09/24 06:33:45;;;;;;;9.80;6.20;;;;;10.80;102007.00;;;;4929931;29;20765;-70
2023/09/24 06:36:32;;;;;;;10.37;5.80;;;;;10.90;102009.00;;;;4926188;29;20296;-69
2023/09/24 06:39:19;;;;;;;10.37;5.80;;;;;10.90;102017.00;;;;4927825;28;20932;-70
2023/09/24 06:42:06;;;;;;;11.20;7.10;;;;;11.00;102017.00;;;;4928437;29;20240;-67
2023/09/24 06:44:53;;;;;;;13.70;6.53;;;;;11.10;102020.00;;;;4923472;28;20352;-67
2023/09/24 06:47:39;;;;;;;9.50;6.57;;;;;11.20;102017.00;;;;4919633;28;20248;-70
2023/09/24 06:50:26;;;;;;;12.83;7.30;;;;;11.30;102017.00;;;;4934913;28;20307;-68
2023/09/24 06:53:12;;;;;;;12.30;7.33;;;;;11.30;102031.00;;;;4929291;28;20236;-68
2023/09/24 06:55:59;;;;;;;10.27;7.17;;;;;11.50;102035.00;;;;4924984;29;20260;-68
2023/09/24 06:58:46;;;;;;;12.17;7.30;;;;;11.50;102031.00;;;;4931259;28;20312;-66
2023/09/24 07:01:33;;;;;;;15.20;7.17;;;;;11.60;102031.00;;;;4925323;29;20272;-69
2023/09/24 07:04:19;;;;;;;13.07;7.67;;;;;11.70;102042.00;;;;4929148;29;20235;-69
2023/09/24 07:07:08;;;;;;;16.93;8.07;;;;;11.80;102038.00;;;;4917057;29;21319;-67
2023/09/24 07:09:55;;;;;;;13.80;8.47;;;;;11.90;102035.00;;;;4915941;28;20257;-68
2023/09/24 07:12:42;;;;;;;15.63;8.37;;;;;12.00;102039.00;;;;4922530;29;20236;-68
2023/09/24 07:15:31;;;;;;;16.37;7.97;;;;;12.10;102044.00;;;;4930176;29;20361;-67
2023/09/24 07:18:19;;;;;;;21.07;8.60;;;;;12.20;102045.00;;;;4927588;29;20709;-68
2023/09/24 07:21:05;;;;;;;13.00;8.00;;;;;12.30;102052.00;;;;4917261;29;22911;-68
2023/09/24 07:24:09;;;;;;;14.47;8.03;;;;;12.40;102044.00;;;;4920256;28;20667;-70
2023/09/24 07:26:56;;;;;;;16.23;8.57;;;;;12.50;102041.00;;;;4924575;28;20235;-68
2023/09/24 07:29:44;;;;;;;10.60;7.43;;;;;12.60;102054.00;;;;4915840;29;20317;-67
2023/09/24 07:32:33;;;;;;;12.60;7.40;;;;;12.60;102049.00;;;;4922534;29;20229;-68
2023/09/24 07:35:20;;;;;;;12.80;6.93;;;;;12.80;102047.00;;;;4925215;29;20610;-68
2023/09/24 07:38:06;;;;;;;13.53;7.33;;;;;12.80;102059.00;;;;4919457;29;20244;-68
2023/09/24 07:40:53;;;;;;;10.87;7.07;;;;;12.90;102059.00;;;;4926788;28;20245;-68
2023/09/24 07:43:42;;;;;;;11.63;6.57;;;;;13.00;102056.00;;;;4929840;29;20356;-69
2023/09/24 07:46:28;;;;;;;11.13;7.00;;;;;13.10;102063.00;;;;4927027;29;20621;-69
2023/09/24 07:49:16;;;;;;;12.20;6.23;;;;;13.20;102065.00;;;;4928231;28;20315;-68
2023/09/24 07:52:02;;;;;;;10.67;6.70;;;;;13.30;102073.00;;;;4925532;29;20240;-69
2023/09/24 07:54:49;;;;;;;11.37;6.37;;;;;13.40;102061.00;;;;4928407;29;20229;-68
2023/09/24 07:57:35;;;;;;;13.60;6.80;;;;;13.50;102062.00;;;;4925735;28;20296;-67
2023/09/24 08:00:22;;;;;;;9.80;5.87;;;;;13.60;102060.00;;;;4918644;29;20265;-68
2023/09/24 08:03:08;;;;;;;10.43;5.50;;;;;13.70;102066.00;;;;4919224;29;20245;-67
2023/09/24 08:05:56;;;;;;;10.30;5.60;;;;;13.80;102064.00;;;;4915571;29;20244;-68
2023/09/24 08:08:42;;;;;;;14.17;5.00;;;;;13.90;102060.00;;;;4910740;29;20358;-68
2023/09/24 08:11:42;;;;;;;8.03;5.07;;;;;14.00;102068.00;;;;4921997;29;20240;-69
2023/09/24 08:14:29;;;;;;;9.47;4.03;;;;;14.00;102063.00;;;;4925292;29;20786;-71
2023/09/24 08:17:15;;;;;;;8.30;4.33;;;;;14.10;102070.00;;;;4917407;29;20317;-68
2023/09/24 08:20:02;;;;;;;10.03;4.37;;;;;14.20;102070.00;;;;4918902;29;20368;-68
2023/09/24 08:22:49;;;;;;;9.93;4.50;;;;;14.30;102069.00;;;;4918831;29;20603;-67
2023/09/24 08:25:36;;;;;;;6.07;4.10;;;;;14.40;102071.00;;;;4919535;28;20312;-70
2023/09/24 08:28:23;;;;;;;11.07;3.70;;;;;14.50;102064.00;;;;4922333;29;20236;-67
2023/09/24 08:31:09;;;;;;;9.00;3.57;;;;;14.60;102078.00;;;;4912769;29;20715;-67
2023/09/24 08:33:56;;;;;;;6.50;3.77;;;;;14.60;102079.00;;;;4924503;28;20253;-68
2023/09/24 08:36:42;;;;;;;8.63;3.53;;;;;14.70;102077.00;;;;4913618;29;20248;-69
2023/09/24 08:39:30;;;;;;;9.70;4.00;;;;;14.80;102071.00;;;;4919941;29;20310;-69
2023/09/24 08:42:20;;;;;;;3.97;3.00;;;;;15.00;102078.00;;;;4918126;29;20286;-68
2023/09/24 08:45:11;;;;;;;9.27;3.27;;;;;15.10;102077.00;;;;4921316;29;20243;-68
2023/09/24 08:48:00;;;;;;;6.33;2.80;;;;;15.20;102080.00;;;;4922889;29;20245;-69
2023/09/24 08:50:47;;;;;;;6.20;2.90;;;;;15.30;102074.00;;;;4925559;29;20232;-67
2023/09/24 08:53:35;;;;;;;7.87;2.90;;;;;15.40;102072.00;;;;4919211;29;20270;-69
2023/09/24 08:56:25;;;;;;;3.53;2.43;;;;;15.50;102082.00;;;;4922420;29;20246;-70
2023/09/24 08:59:12;;;;;;;5.73;2.33;;;;;15.60;102071.00;;;;4926446;29;20255;-68
2023/09/24 09:01:58;;;;;;;3.67;2.70;;;;;15.70;102077.00;;;;4921413;28;20999;-72
2023/09/24 09:04:48;;;;;;;5.50;2.90;;;;;15.80;102076.00;;;;4913354;29;20369;-70
2023/09/24 09:07:35;;;;;;;6.47;2.43;;;;;16.00;102073.00;;;;4918208;29;20233;-67
2023/09/24 09:10:24;;;;;;;4.53;2.10;;;;;16.30;102077.00;;;;4923124;29;20257;-65
2023/09/24 09:13:15;;;;;;;4.03;2.10;;;;;16.50;102076.00;;;;4916853;29;20261;-69
2023/09/24 09:16:03;;;;;;;4.83;1.90;;;;;16.70;102078.00;;;;4918202;29;20311;-69
2023/09/24 09:19:00;;;;;;;3.50;2.17;;;;;16.80;102065.00;;;;4925524;29;20244;-65
2023/09/24 09:21:46;;;;;;;4.10;2.10;;;;;16.80;102060.00;;;;4922059;28;20249;-71
2023/09/24 09:24:32;;;;;;;5.37;1.80;;;;;16.80;102058.00;;;;4918075;28;20281;-69
2023/09/24 09:27:19;;;;;;;4.97;1.70;;;;;17.00;102057.00;;;;4922671;29;20542;-70
2023/09/24 09:30:15;;;;;;;4.70;2.03;;;;;17.00;102055.00;;;;4912008;29;20692;-68
2023/09/24 09:33:02;;;;;;;3.37;1.93;;;;;17.20;102056.00;;;;4917276;28;20373;-71
2023/09/24 09:35:49;;;;;;;4.53;2.13;;;;;17.30;102052.00;;;;4917739;29;20232;-65
2023/09/24 09:38:35;;;;;;;3.07;1.70;;;;;17.40;102050.00;;;;4925124;29;20339;-68
2023/09/24 09:41:23;;;;;;;4.03;1.80;;;;;17.60;102052.00;;;;4917888;28;20305;-68
2023/09/24 09:44:09;;;;;;;7.23;1.60;;;;;17.60;102056.00;;;;4924555;29;20606;-68
2023/09/24 09:47:00;;;;;;;5.23;2.03;;;;;17.60;102055.00;;;;4914352;28;20273;-68
2023/09/24 09:49:50;;;;;;;2.10;1.60;;;;;17.80;102049.00;;;;4910623;29;20289;-68
2023/09/24 09:52:43;;;;;;;5.03;2.07;;;;;17.90;102040.00;;;;4917867;29;20241;-67
2023/09/24 09:55:31;;;;;;;5.00;1.97;;;;;17.90;102055.00;;;;4923727;29;20233;-66
2023/09/24 09:58:17;;;;;;;3.33;1.60;;;;;18.00;102039.00;;;;4916719;28;20229;-67
2023/09/24 10:01:09;;;;;;;6.43;1.70;;;;;18.10;102042.00;;;;4921424;28;20296;-68
2023/09/24 10:03:58;;;;;;;1.90;1.53;;;;;18.10;102047.00;;;;4915912;29;20286;-69
2023/09/24 10:06:44;;;;;;;2.67;1.60;;;;;18.30;102037.00;;;;4919709;29;20291;-68
2023/09/24 10:09:35;;;;;;;2.57;1.70;;;;;18.40;102038.00;;;;4917171;29;20721;-69
2023/09/24 10:12:35;;;;;;;4.50;1.70;;;;;18.50;102032.00;;;;4924458;29;20312;-67
2023/09/24 10:15:25;;;;;;;6.13;2.00;;;;;18.80;102023.00;;;;4922873;29;20236;-67
2023/09/24 10:18:23;;;;;;;2.67;1.57;;;;;18.90;102024.00;;;;4920948;29;20228;-69
2023/09/24 10:21:10;;;;;;;9.27;1.87;;;;;19.10;102018.00;;;;4920215;28;20636;-68
2023/09/24 10:23:57;;;;;;;2.37;1.67;;;;;19.10;102017.00;;;;4917492;28;20357;-68
2023/09/24 10:26:48;;;;;;;6.70;1.83;;;;;19.20;102006.00;;;;4919547;29;20365;-73
2023/09/24 10:30:03;;;;;;;4.07;1.57;;;;;19.30;102012.00;;;;4912738;29;20352;-71
2023/09/24 10:32:50;;;;;;;3.47;1.50;;;;;19.30;102015.00;;;;4886303;29;20370;-67
2023/09/24 10:35:36;;;;;;;1.97;1.40;;;;;19.50;101999.00;;;;4920558;29;20240;-68
2023/09/24 10:38:24;;;;;;;2.70;1.40;;;;;19.60;102012.00;;;;4916074;29;20226;-69
2023/09/24 10:41:10;;;;;;;2.53;1.90;;;;;19.80;102008.00;;;;4919136;29;20236;-68
2023/09/24 10:44:23;;;;;;;2.83;1.60;;;;;19.90;102006.00;;;;4926480;29;20243;-69
2023/09/24 10:47:25;;;;;;;3.37;1.40;;;;;19.90;102007.00;;;;4922126;29;20330;-69
2023/09/24 10:50:13;;;;;;;2.50;1.30;;;;;20.00;102005.00;;;;4921785;28;20233;-68
2023/09/24 10:53:02;;;;;;;3.80;1.30;;;;;20.20;102011.00;;;;4916150;29;20236;-68
2023/09/24 10:55:50;;;;;;;4.37;1.30;;;;;20.30;102012.00;;;;4913232;29;20257;-67
2023/09/24 10:58:54;;;;;;;4.03;1.60;;;;;20.40;102010.00;;;;4918353;29;20626;-68
2023/09/24 11:01:41;;;;;;;2.50;1.30;;;;;20.40;102007.00;;;;4923187;29;20375;-68
2023/09/24 11:04:27;;;;;;;5.10;1.20;;;;;20.50;102002.00;;;;4915337;29;20644;-68
2023/09/24 11:07:14;;;;;;;1.80;1.17;;;;;20.50;101994.00;;;;4919193;29;20230;-68
2023/09/24 11:10:00;;;;;;;3.23;1.37;;;;;20.50;101996.00;;;;4927451;29;20356;-67
2023/09/24 11:12:51;;;;;;;2.23;1.20;;;;;20.70;102002.00;;;;4925188;29;20235;-68
2023/09/24 11:15:39;;;;;;;3.17;1.50;;;;;20.60;102001.00;;;;4925791;29;20232;-67
2023/09/24 11:18:28;;;;;;;1.27;1.17;;;;;20.80;101986.00;;;;4920379;29;20357;-69
2023/09/24 11:21:16;;;;;;;2.97;1.30;;;;;20.90;101987.00;;;;4917935;29;20248;-70
2023/09/24 11:24:18;;;;;;;3.13;1.37;;;;;21.00;101984.00;;;;4921804;28;20268;-69
2023/09/24 11:27:07;;;;;;;5.50;1.30;;;;;21.10;101985.00;;;;4918381;29;20308;-69
2023/09/24 11:29:59;;;;;;;2.87;1.50;;;;;21.30;101982.00;;;;4926650;29;20634;-66
2023/09/24 11:32:47;;;;;;;3.13;1.30;;;;;21.20;101979.00;;;;4920727;29;20233;-70
2023/09/24 11:35:38;;;;;;;1.40;1.13;;;;;21.40;101984.00;;;;4917469;29;20236;-69
2023/09/24 11:38:30;;;;;;;2.43;1.20;;;;;21.30;101982.00;;;;4917238;29;20630;-68
2023/09/24 11:41:18;;;;;;;1.50;1.27;;;;;21.40;101984.00;;;;4902785;29;20324;-71
2023/09/24 11:44:04;;;;;;;1.53;1.10;;;;;21.50;101984.00;;;;4917846;28;20232;-69
2023/09/24 11:46:52;;;;;;;2.47;1.20;;;;;21.60;101982.00;;;;4917588;29;20245;-66
2023/09/24 11:49:38;;;;;;;3.20;1.27;;;;;21.70;101984.00;;;;4920966;29;20283;-69
2023/09/24 11:52:27;;;;;;;3.70;1.10;;;;;21.80;101976.00;;;;4923599;29;20236;-67
2023/09/24 11:55:13;;;;;;;4.43;1.37;;;;;21.70;101980.00;;;;4926088;29;20269;-67
2023/09/24 11:58:00;;;;;;;2.47;1.10;;;;;21.60;101985.00;;;;4918999;29;20236;-73
2023/09/24 12:00:47;;;;;;;2.17;1.20;;;;;21.80;101982.00;;;;4920705;29;20330;-69
2023/09/24 12:03:38;;;;;;;1.23;1.00;;;;;21.90;101990.00;;;;4911873;29;20249;-68
2023/09/24 12:06:25;;;;;;;1.30;0.93;;;;;21.90;101984.00;;;;4918598;28;20236;-68
2023/09/24 12:09:12;;;;;;;1.93;1.20;;;;;21.90;101977.00;;;;4916380;28;20230;-64
2023/09/24 12:11:59;;;;;;;2.57;1.17;;;;;21.90;101972.00;;;;4918191;29;20234;-69
2023/09/24 12:14:46;;;;;;;2.50;1.00;;;;;22.00;101976.00;;;;4922633;29;20228;-68
2023/09/24 12:17:32;;;;;;;2.33;1.10;;;;;22.10;101974.00;;;;4919294;28;20237;-68
2023/09/24 12:20:20;;;;;;;2.97;1.23;;;;;22.30;101987.00;;;;4927575;28;20245;-68
2023/09/24 12:23:07;;;;;;;2.10;1.20;;;;;22.40;101983.00;;;;4917830;29;20402;-65
2023/09/24 12:25:54;;;;;;;3.47;1.47;;;;;22.40;101980.00;;;;4923478;28;20620;-69
2023/09/24 12:28:40;;;;;;;2.77;1.13;;;;;22.50;101983.00;;;;4923041;29;20244;-69
2023/09/24 12:31:27;;;;;;;1.70;1.10;;;;;22.60;101984.00;;;;4926990;29;20228;-69
2023/09/24 12:34:13;;;;;;;1.57;1.10;;;;;22.70;101982.00;;;;4921050;29;20730;-69
2023/09/24 12:37:00;;;;;;;1.43;1.20;;;;;22.80;101972.00;;;;4911507;29;20374;-69
2023/09/24 12:39:48;;;;;;;2.13;1.10;;;;;22.70;101988.00;;;;4915065;29;20230;-69
2023/09/24 12:42:34;;;;;;;3.67;1.17;;;;;22.80;101991.00;;;;4917040;28;20358;-68
2023/09/24 12:45:21;;;;;;;2.87;1.20;;;;;22.90;101984.00;;;;4916620;28;20232;-69
2023/09/24 12:48:07;;;;;;;2.77;0.97;;;;;23.00;101983.00;;;;4919509;29;20241;-69
2023/09/24 12:50:53;;;;;;;2.27;1.37;;;;;22.80;101978.00;;;;4914155;29;20253;-65
2023/09/24 12:53:42;;;;;;;2.80;1.27;;;;;22.70;101980.00;;;;4917767;29;20768;-69
2023/09/24 12:56:28;;;;;;;2.03;1.17;;;;;22.90;101983.00;;;;4914119;29;20366;-69
2023/09/24 12:59:14;;;;;;;2.47;1.20;;;;;22.90;101984.00;;;;4922301;29;20800;-71
2023/09/24 13:02:01;;;;;;;1.57;1.20;;;;;22.90;101986.00;;;;4913336;29;20305;-67
2023/09/24 13:04:47;;;;;;;2.23;1.20;;;;;22.90;101995.00;;;;4911171;29;20610;-68
2023/09/24 13:07:34;;;;;;;1.43;1.20;;;;;22.90;101979.00;;;;4914297;29;20241;-68
2023/09/24 13:10:22;;;;;;;1.63;1.30;;;;;22.70;101981.00;;;;4920517;28;20726;-67
2023/09/24 13:13:09;;;;;;;3.30;1.10;;;;;22.80;101969.00;;;;4914410;29;20260;-66
2023/09/24 13:15:56;;;;;;;3.03;1.30;;;;;23.00;101962.00;;;;4926258;29;20280;-70
2023/09/24 13:18:42;;;;;;;2.43;1.30;;;;;23.20;101960.00;;;;4927756;29;20236;-68
2023/09/24 13:21:29;;;;;;;3.13;1.20;;;;;23.40;101958.00;;;;4920703;29;20252;-68
2023/09/24 13:24:16;;;;;;;1.73;1.27;;;;;23.50;101959.00;;;;4917211;29;20329;-68
2023/09/24 13:27:03;;;;;;;3.13;1.30;;;;;23.60;101964.00;;;;4919136;29;20301;-67
2023/09/24 13:29:51;;;;;;;2.10;1.07;;;;;23.50;101960.00;;;;4921717;29;20245;-69
2023/09/24 13:32:38;;;;;;;1.80;1.27;;;;;23.70;101966.00;;;;4911082;29;20306;-68
2023/09/24 13:35:25;;;;;;;2.17;1.50;;;;;23.80;101968.00;;;;4926445;29;20240;-69
2023/09/24 13:38:11;;;;;;;2.23;1.10;;;;;23.90;101962.00;;;;4916498;29;20358;-70
2023/09/24 13:40:58;;;;;;;2.07;1.27;;;;;24.00;101957.00;;;;4928023;29;20232;-67
2023/09/24 13:43:45;;;;;;;3.40;1.30;;;;;23.90;101956.00;;;;4909540;29;20357;-69
2023/09/24 13:46:32;;;;;;;4.83;1.30;;;;;23.70;101943.00;;;;4915428;29;20233;-68